sensor_id;sensor_type;location;lat;lon;timestamp;P1;durP1;ratioP1;P2;durP2;ratioP2
35010;SDS011;21205;37.378;127.098;2023-03-03T00:00:15;0.85;;;0.77;;
35010;SDS011;21205;37.378;127.098;2023-03-03T00:02:45;0.93;;;0.70;;
35010;SDS011;21205;37.378;127.098;2023-03-03T00:05:14;1.17;;;1.00;;
35010;SDS011;21205;37.378;127.098;2023-03-03T00:07:45;1.88;;;0.73;;
35010;SDS011;21205;37.378;127.098;2023-03-03T00:10:16;1.27;;;0.90;;
35010;SDS011;21205;37.378;127.098;2023-03-03T00:12:47;1.05;;;0.85;;
35010;SDS011;21205;37.378;127.098;2023-03-03T00:15:19;1.08;;;0.80;;
35010;SDS011;21205;37.378;127.098;2023-03-03T00:17:51;1.17;;;0.70;;
35010;SDS011;21205;37.378;127.098;2023-03-03T00:20:29;2.00;;;1.00;;
35010;SDS011;21205;37.378;127.098;2023-03-03T00:23:38;0.88;;;0.65;;
35010;SDS011;21205;37.378;127.098;2023-03-03T00:26:30;1.00;;;0.90;;
35010;SDS011;21205;37.378;127.098;2023-03-03T00:31:55;1.52;;;0.73;;
35010;SDS011;21205;37.378;127.098;2023-03-03T00:34:40;0.85;;;0.63;;
35010;SDS011;21205;37.378;127.098;2023-03-03T00:37:25;0.57;;;0.57;;
35010;SDS011;21205;37.378;127.098;2023-03-03T00:40:10;0.60;;;0.47;;
35010;SDS011;21205;37.378;127.098;2023-03-03T00:42:45;2.50;;;0.65;;
35010;SDS011;21205;37.378;127.098;2023-03-03T00:45:22;0.88;;;0.80;;
35010;SDS011;21205;37.378;127.098;2023-03-03T00:47:52;1.38;;;0.70;;
35010;SDS011;21205;37.378;127.098;2023-03-03T00:50:30;1.27;;;0.60;;
35010;SDS011;21205;37.378;127.098;2023-03-03T00:53:22;0.88;;;0.80;;
35010;SDS011;21205;37.378;127.098;2023-03-03T00:55:53;0.88;;;0.60;;
35010;SDS011;21205;37.378;127.098;2023-03-03T00:58:23;1.05;;;0.85;;
35010;SDS011;21205;37.378;127.098;2023-03-03T01:00:54;1.10;;;0.63;;
35010;SDS011;21205;37.378;127.098;2023-03-03T01:03:26;1.33;;;0.70;;
35010;SDS011;21205;37.378;127.098;2023-03-03T01:05:56;2.15;;;0.70;;
35010;SDS011;21205;37.378;127.098;2023-03-03T01:08:25;0.63;;;0.60;;
35010;SDS011;21205;37.378;127.098;2023-03-03T01:10:56;1.33;;;0.70;;
35010;SDS011;21205;37.378;127.098;2023-03-03T01:13:31;0.47;;;0.47;;
35010;SDS011;21205;37.378;127.098;2023-03-03T01:16:03;1.15;;;0.40;;
35010;SDS011;21205;37.378;127.098;2023-03-03T01:18:34;1.00;;;0.60;;
35010;SDS011;21205;37.378;127.098;2023-03-03T01:21:04;0.98;;;0.60;;
35010;SDS011;21205;37.378;127.098;2023-03-03T01:23:34;0.57;;;0.52;;
35010;SDS011;21205;37.378;127.098;2023-03-03T01:26:04;0.57;;;0.52;;
35010;SDS011;21205;37.378;127.098;2023-03-03T01:28:34;1.58;;;0.70;;
35010;SDS011;21205;37.378;127.098;2023-03-03T01:31:04;1.33;;;0.75;;
35010;SDS011;21205;37.378;127.098;2023-03-03T01:33:34;2.28;;;0.98;;
35010;SDS011;21205;37.378;127.098;2023-03-03T01:36:04;1.25;;;0.68;;
35010;SDS011;21205;37.378;127.098;2023-03-03T01:38:35;0.85;;;0.70;;
35010;SDS011;21205;37.378;127.098;2023-03-03T01:41:05;0.52;;;0.45;;
35010;SDS011;21205;37.378;127.098;2023-03-03T01:43:41;0.65;;;0.57;;
35010;SDS011;21205;37.378;127.098;2023-03-03T01:48:59;0.75;;;0.60;;
35010;SDS011;21205;37.378;127.098;2023-03-03T01:51:35;1.00;;;0.70;;
35010;SDS011;21205;37.378;127.098;2023-03-03T01:54:18;0.60;;;0.55;;
35010;SDS011;21205;37.378;127.098;2023-03-03T01:56:53;0.52;;;0.52;;
35010;SDS011;21205;37.378;127.098;2023-03-03T01:59:29;1.23;;;0.75;;
35010;SDS011;21205;37.378;127.098;2023-03-03T02:02:04;2.25;;;0.70;;
35010;SDS011;21205;37.378;127.098;2023-03-03T02:04:34;0.60;;;0.57;;
35010;SDS011;21205;37.378;127.098;2023-03-03T02:07:05;1.00;;;0.60;;
35010;SDS011;21205;37.378;127.098;2023-03-03T02:09:50;0.65;;;0.50;;
35010;SDS011;21205;37.378;127.098;2023-03-03T02:12:37;2.08;;;0.50;;
35010;SDS011;21205;37.378;127.098;2023-03-03T02:15:31;1.27;;;0.40;;
35010;SDS011;21205;37.378;127.098;2023-03-03T02:18:06;0.40;;;0.40;;
35010;SDS011;21205;37.378;127.098;2023-03-03T02:20:51;0.68;;;0.43;;
35010;SDS011;21205;37.378;127.098;2023-03-03T02:23:46;0.65;;;0.40;;
35010;SDS011;21205;37.378;127.098;2023-03-03T02:26:27;1.00;;;0.50;;
35010;SDS011;21205;37.378;127.098;2023-03-03T02:28:59;2.00;;;0.40;;
35010;SDS011;21205;37.378;127.098;2023-03-03T02:31:29;0.32;;;0.30;;
35010;SDS011;21205;37.378;127.098;2023-03-03T02:34:00;0.30;;;0.20;;
35010;SDS011;21205;37.378;127.098;2023-03-03T02:36:30;0.35;;;0.35;;
35010;SDS011;21205;37.378;127.098;2023-03-03T02:41:41;0.65;;;0.50;;
35010;SDS011;21205;37.378;127.098;2023-03-03T02:44:39;0.73;;;0.50;;
35010;SDS011;21205;37.378;127.098;2023-03-03T02:47:08;1.17;;;0.40;;
35010;SDS011;21205;37.378;127.098;2023-03-03T02:49:38;1.13;;;0.50;;
35010;SDS011;21205;37.378;127.098;2023-03-03T02:52:09;0.95;;;0.45;;
35010;SDS011;21205;37.378;127.098;2023-03-03T02:54:39;0.95;;;0.50;;
35010;SDS011;21205;37.378;127.098;2023-03-03T02:57:09;0.43;;;0.30;;
35010;SDS011;21205;37.378;127.098;2023-03-03T02:59:38;0.30;;;0.30;;
35010;SDS011;21205;37.378;127.098;2023-03-03T03:02:08;1.45;;;0.40;;
35010;SDS011;21205;37.378;127.098;2023-03-03T03:04:38;0.75;;;0.50;;
35010;SDS011;21205;37.378;127.098;2023-03-03T03:07:07;1.45;;;0.70;;
35010;SDS011;21205;37.378;127.098;2023-03-03T03:09:37;0.47;;;0.40;;
35010;SDS011;21205;37.378;127.098;2023-03-03T03:12:07;0.70;;;0.60;;
35010;SDS011;21205;37.378;127.098;2023-03-03T03:14:37;0.73;;;0.40;;
35010;SDS011;21205;37.378;127.098;2023-03-03T03:17:06;0.50;;;0.40;;
35010;SDS011;21205;37.378;127.098;2023-03-03T03:19:38;0.85;;;0.50;;
35010;SDS011;21205;37.378;127.098;2023-03-03T03:22:08;1.52;;;0.77;;
35010;SDS011;21205;37.378;127.098;2023-03-03T03:24:38;0.82;;;0.65;;
35010;SDS011;21205;37.378;127.098;2023-03-03T03:27:09;0.40;;;0.40;;
35010;SDS011;21205;37.378;127.098;2023-03-03T03:29:38;2.08;;;0.70;;
35010;SDS011;21205;37.378;127.098;2023-03-03T03:32:08;1.17;;;0.57;;
35010;SDS011;21205;37.378;127.098;2023-03-03T03:34:39;1.08;;;0.60;;
35010;SDS011;21205;37.378;127.098;2023-03-03T03:37:09;0.80;;;0.63;;
35010;SDS011;21205;37.378;127.098;2023-03-03T03:39:39;0.52;;;0.47;;
35010;SDS011;21205;37.378;127.098;2023-03-03T03:42:09;0.43;;;0.40;;
35010;SDS011;21205;37.378;127.098;2023-03-03T03:44:38;0.90;;;0.52;;
35010;SDS011;21205;37.378;127.098;2023-03-03T03:47:08;0.93;;;0.57;;
35010;SDS011;21205;37.378;127.098;2023-03-03T03:49:38;0.55;;;0.55;;
35010;SDS011;21205;37.378;127.098;2023-03-03T03:52:07;1.33;;;0.50;;
35010;SDS011;21205;37.378;127.098;2023-03-03T03:54:37;0.47;;;0.47;;
35010;SDS011;21205;37.378;127.098;2023-03-03T03:57:07;0.73;;;0.60;;
35010;SDS011;21205;37.378;127.098;2023-03-03T03:59:37;0.40;;;0.40;;
35010;SDS011;21205;37.378;127.098;2023-03-03T04:02:06;0.75;;;0.50;;
35010;SDS011;21205;37.378;127.098;2023-03-03T04:04:36;0.40;;;0.40;;
35010;SDS011;21205;37.378;127.098;2023-03-03T04:07:06;0.43;;;0.43;;
35010;SDS011;21205;37.378;127.098;2023-03-03T04:09:37;1.27;;;0.65;;
35010;SDS011;21205;37.378;127.098;2023-03-03T04:12:07;0.50;;;0.40;;
35010;SDS011;21205;37.378;127.098;2023-03-03T04:14:37;0.40;;;0.40;;
35010;SDS011;21205;37.378;127.098;2023-03-03T04:17:07;0.50;;;0.50;;
35010;SDS011;21205;37.378;127.098;2023-03-03T04:19:38;0.35;;;0.35;;
35010;SDS011;21205;37.378;127.098;2023-03-03T04:22:07;0.30;;;0.30;;
35010;SDS011;21205;37.378;127.098;2023-03-03T04:24:37;0.43;;;0.43;;
35010;SDS011;21205;37.378;127.098;2023-03-03T04:27:07;0.73;;;0.40;;
35010;SDS011;21205;37.378;127.098;2023-03-03T04:29:37;1.00;;;0.43;;
35010;SDS011;21205;37.378;127.098;2023-03-03T04:32:07;0.50;;;0.50;;
35010;SDS011;21205;37.378;127.098;2023-03-03T04:34:36;0.80;;;0.60;;
35010;SDS011;21205;37.378;127.098;2023-03-03T04:37:06;0.40;;;0.40;;
35010;SDS011;21205;37.378;127.098;2023-03-03T04:39:36;0.70;;;0.70;;
35010;SDS011;21205;37.378;127.098;2023-03-03T04:42:05;1.77;;;0.50;;
35010;SDS011;21205;37.378;127.098;2023-03-03T04:44:35;0.50;;;0.50;;
35010;SDS011;21205;37.378;127.098;2023-03-03T04:47:05;0.40;;;0.40;;
35010;SDS011;21205;37.378;127.098;2023-03-03T04:49:35;0.50;;;0.50;;
35010;SDS011;21205;37.378;127.098;2023-03-03T04:52:04;1.02;;;0.80;;
35010;SDS011;21205;37.378;127.098;2023-03-03T04:54:34;1.30;;;0.57;;
35010;SDS011;21205;37.378;127.098;2023-03-03T04:57:04;0.40;;;0.40;;
35010;SDS011;21205;37.378;127.098;2023-03-03T04:59:35;0.55;;;0.55;;
35010;SDS011;21205;37.378;127.098;2023-03-03T05:02:04;1.13;;;0.60;;
35010;SDS011;21205;37.378;127.098;2023-03-03T05:04:34;0.88;;;0.55;;
35010;SDS011;21205;37.378;127.098;2023-03-03T05:07:04;0.60;;;0.60;;
35010;SDS011;21205;37.378;127.098;2023-03-03T05:09:34;0.45;;;0.43;;
35010;SDS011;21205;37.378;127.098;2023-03-03T05:12:04;0.65;;;0.47;;
35010;SDS011;21205;37.378;127.098;2023-03-03T05:14:34;0.40;;;0.40;;
35010;SDS011;21205;37.378;127.098;2023-03-03T05:17:03;0.73;;;0.60;;
35010;SDS011;21205;37.378;127.098;2023-03-03T05:19:33;0.98;;;0.57;;
35010;SDS011;21205;37.378;127.098;2023-03-03T05:22:03;0.63;;;0.47;;
35010;SDS011;21205;37.378;127.098;2023-03-03T05:24:33;0.52;;;0.50;;
35010;SDS011;21205;37.378;127.098;2023-03-03T05:27:02;0.50;;;0.47;;
35010;SDS011;21205;37.378;127.098;2023-03-03T05:29:32;0.60;;;0.50;;
35010;SDS011;21205;37.378;127.098;2023-03-03T05:32:02;1.17;;;0.70;;
35010;SDS011;21205;37.378;127.098;2023-03-03T05:34:31;0.40;;;0.40;;
35010;SDS011;21205;37.378;127.098;2023-03-03T05:37:01;2.33;;;0.63;;
35010;SDS011;21205;37.378;127.098;2023-03-03T05:39:31;0.50;;;0.50;;
35010;SDS011;21205;37.378;127.098;2023-03-03T05:42:01;0.70;;;0.60;;
35010;SDS011;21205;37.378;127.098;2023-03-03T05:44:31;0.30;;;0.30;;
35010;SDS011;21205;37.378;127.098;2023-03-03T05:47:01;0.52;;;0.50;;
35010;SDS011;21205;37.378;127.098;2023-03-03T05:49:30;0.63;;;0.60;;
35010;SDS011;21205;37.378;127.098;2023-03-03T05:52:00;0.50;;;0.45;;
35010;SDS011;21205;37.378;127.098;2023-03-03T05:54:30;0.70;;;0.70;;
35010;SDS011;21205;37.378;127.098;2023-03-03T05:57:00;0.50;;;0.50;;
35010;SDS011;21205;37.378;127.098;2023-03-03T05:59:30;0.52;;;0.50;;
35010;SDS011;21205;37.378;127.098;2023-03-03T06:01:59;2.13;;;0.47;;
35010;SDS011;21205;37.378;127.098;2023-03-03T06:04:29;0.75;;;0.47;;
35010;SDS011;21205;37.378;127.098;2023-03-03T06:06:59;0.80;;;0.50;;
35010;SDS011;21205;37.378;127.098;2023-03-03T06:09:28;0.43;;;0.40;;
35010;SDS011;21205;37.378;127.098;2023-03-03T06:11:58;0.68;;;0.40;;
35010;SDS011;21205;37.378;127.098;2023-03-03T06:14:27;0.88;;;0.40;;
35010;SDS011;21205;37.378;127.098;2023-03-03T06:16:57;0.30;;;0.30;;
35010;SDS011;21205;37.378;127.098;2023-03-03T06:19:27;0.50;;;0.30;;
35010;SDS011;21205;37.378;127.098;2023-03-03T06:21:57;0.20;;;0.20;;
35010;SDS011;21205;37.378;127.098;2023-03-03T06:24:26;0.22;;;0.22;;
35010;SDS011;21205;37.378;127.098;2023-03-03T06:26:58;0.63;;;0.35;;
35010;SDS011;21205;37.378;127.098;2023-03-03T06:29:29;0.30;;;0.30;;
35010;SDS011;21205;37.378;127.098;2023-03-03T06:31:58;0.32;;;0.30;;
35010;SDS011;21205;37.378;127.098;2023-03-03T06:34:28;0.57;;;0.40;;
35010;SDS011;21205;37.378;127.098;2023-03-03T06:36:58;0.20;;;0.20;;
35010;SDS011;21205;37.378;127.098;2023-03-03T06:39:28;0.60;;;0.50;;
35010;SDS011;21205;37.378;127.098;2023-03-03T06:41:57;0.70;;;0.38;;
35010;SDS011;21205;37.378;127.098;2023-03-03T06:44:27;0.68;;;0.45;;
35010;SDS011;21205;37.378;127.098;2023-03-03T06:46:57;0.30;;;0.30;;
35010;SDS011;21205;37.378;127.098;2023-03-03T06:49:26;0.50;;;0.50;;
35010;SDS011;21205;37.378;127.098;2023-03-03T06:51:57;0.32;;;0.32;;
35010;SDS011;21205;37.378;127.098;2023-03-03T06:54:29;0.30;;;0.30;;
35010;SDS011;21205;37.378;127.098;2023-03-03T06:56:59;0.65;;;0.60;;
35010;SDS011;21205;37.378;127.098;2023-03-03T06:59:36;0.40;;;0.40;;
35010;SDS011;21205;37.378;127.098;2023-03-03T07:02:11;0.50;;;0.40;;
35010;SDS011;21205;37.378;127.098;2023-03-03T07:04:44;1.35;;;0.55;;
35010;SDS011;21205;37.378;127.098;2023-03-03T07:07:18;0.38;;;0.32;;
35010;SDS011;21205;37.378;127.098;2023-03-03T07:09:53;0.40;;;0.40;;
35010;SDS011;21205;37.378;127.098;2023-03-03T07:12:25;0.40;;;0.22;;
35010;SDS011;21205;37.378;127.098;2023-03-03T07:17:41;0.50;;;0.40;;
35010;SDS011;21205;37.378;127.098;2023-03-03T07:20:19;0.50;;;0.30;;
35010;SDS011;21205;37.378;127.098;2023-03-03T07:22:50;2.63;;;0.50;;
35010;SDS011;21205;37.378;127.098;2023-03-03T07:25:26;0.52;;;0.40;;
35010;SDS011;21205;37.378;127.098;2023-03-03T07:28:25;0.40;;;0.40;;
35010;SDS011;21205;37.378;127.098;2023-03-03T07:30:56;0.30;;;0.30;;
35010;SDS011;21205;37.378;127.098;2023-03-03T07:36:28;0.80;;;0.40;;
35010;SDS011;21205;37.378;127.098;2023-03-03T07:39:03;0.50;;;0.50;;
35010;SDS011;21205;37.378;127.098;2023-03-03T07:41:54;0.28;;;0.28;;
35010;SDS011;21205;37.378;127.098;2023-03-03T07:44:42;0.40;;;0.40;;
35010;SDS011;21205;37.378;127.098;2023-03-03T07:47:20;1.02;;;0.52;;
35010;SDS011;21205;37.378;127.098;2023-03-03T07:49:54;1.63;;;0.40;;
35010;SDS011;21205;37.378;127.098;2023-03-03T07:52:27;0.70;;;0.60;;
35010;SDS011;21205;37.378;127.098;2023-03-03T08:03:49;0.77;;;0.70;;
35010;SDS011;21205;37.378;127.098;2023-03-03T08:11:46;0.30;;;0.30;;
35010;SDS011;21205;37.378;127.098;2023-03-03T08:14:25;0.40;;;0.40;;
35010;SDS011;21205;37.378;127.098;2023-03-03T08:16:58;0.63;;;0.30;;
35010;SDS011;21205;37.378;127.098;2023-03-03T08:19:29;1.98;;;0.57;;
35010;SDS011;21205;37.378;127.098;2023-03-03T08:22:08;0.55;;;0.47;;
35010;SDS011;21205;37.378;127.098;2023-03-03T08:24:42;0.65;;;0.65;;
35010;SDS011;21205;37.378;127.098;2023-03-03T08:27:12;0.75;;;0.50;;
35010;SDS011;21205;37.378;127.098;2023-03-03T08:29:42;0.70;;;0.40;;
35010;SDS011;21205;37.378;127.098;2023-03-03T08:32:14;0.85;;;0.60;;
35010;SDS011;21205;37.378;127.098;2023-03-03T08:34:44;0.57;;;0.57;;
35010;SDS011;21205;37.378;127.098;2023-03-03T08:37:14;0.40;;;0.40;;
35010;SDS011;21205;37.378;127.098;2023-03-03T08:39:43;0.38;;;0.38;;
35010;SDS011;21205;37.378;127.098;2023-03-03T08:42:14;0.60;;;0.55;;
35010;SDS011;21205;37.378;127.098;2023-03-03T08:44:43;0.68;;;0.60;;
35010;SDS011;21205;37.378;127.098;2023-03-03T08:47:13;1.05;;;0.50;;
35010;SDS011;21205;37.378;127.098;2023-03-03T08:49:42;0.55;;;0.52;;
35010;SDS011;21205;37.378;127.098;2023-03-03T08:52:12;2.15;;;0.70;;
35010;SDS011;21205;37.378;127.098;2023-03-03T08:54:42;0.30;;;0.30;;
35010;SDS011;21205;37.378;127.098;2023-03-03T08:57:11;0.90;;;0.63;;
35010;SDS011;21205;37.378;127.098;2023-03-03T08:59:41;1.73;;;0.73;;
35010;SDS011;21205;37.378;127.098;2023-03-03T09:02:11;0.93;;;0.60;;
35010;SDS011;21205;37.378;127.098;2023-03-03T09:04:41;0.60;;;0.60;;
35010;SDS011;21205;37.378;127.098;2023-03-03T09:07:10;0.57;;;0.57;;
35010;SDS011;21205;37.378;127.098;2023-03-03T09:09:40;0.40;;;0.40;;
35010;SDS011;21205;37.378;127.098;2023-03-03T09:12:17;0.68;;;0.60;;
35010;SDS011;21205;37.378;127.098;2023-03-03T09:14:50;1.23;;;0.47;;
35010;SDS011;21205;37.378;127.098;2023-03-03T09:17:30;1.80;;;0.60;;
35010;SDS011;21205;37.378;127.098;2023-03-03T09:22:57;0.40;;;0.40;;
35010;SDS011;21205;37.378;127.098;2023-03-03T09:27:57;0.30;;;0.30;;
35010;SDS011;21205;37.378;127.098;2023-03-03T09:30:33;0.47;;;0.40;;
35010;SDS011;21205;37.378;127.098;2023-03-03T09:33:26;1.27;;;0.50;;
35010;SDS011;21205;37.378;127.098;2023-03-03T09:36:11;5.78;;;0.50;;
35010;SDS011;21205;37.378;127.098;2023-03-03T09:39:11;3.95;;;0.65;;
35010;SDS011;21205;37.378;127.098;2023-03-03T09:41:59;1.85;;;0.52;;
35010;SDS011;21205;37.378;127.098;2023-03-03T09:55:53;1.40;;;0.77;;
35010;SDS011;21205;37.378;127.098;2023-03-03T10:09:55;0.52;;;0.52;;
35010;SDS011;21205;37.378;127.098;2023-03-03T10:12:42;0.52;;;0.52;;
35010;SDS011;21205;37.378;127.098;2023-03-03T10:21:09;1.17;;;0.63;;
35010;SDS011;21205;37.378;127.098;2023-03-03T10:30:24;2.28;;;0.80;;
35010;SDS011;21205;37.378;127.098;2023-03-03T10:36:34;0.68;;;0.60;;
35010;SDS011;21205;37.378;127.098;2023-03-03T10:39:24;1.02;;;0.60;;
35010;SDS011;21205;37.378;127.098;2023-03-03T10:50:40;5.32;;;0.85;;
35010;SDS011;21205;37.378;127.098;2023-03-03T10:56:45;2.38;;;1.10;;
35010;SDS011;21205;37.378;127.098;2023-03-03T11:02:29;3.47;;;0.73;;
35010;SDS011;21205;37.378;127.098;2023-03-03T11:08:03;1.08;;;0.88;;
35010;SDS011;21205;37.378;127.098;2023-03-03T11:13:35;1.90;;;0.75;;
35010;SDS011;21205;37.378;127.098;2023-03-03T11:16:34;1.48;;;0.80;;
35010;SDS011;21205;37.378;127.098;2023-03-03T11:31:07;0.88;;;0.80;;
35010;SDS011;21205;37.378;127.098;2023-03-03T11:36:40;1.27;;;0.80;;
35010;SDS011;21205;37.378;127.098;2023-03-03T11:39:19;3.55;;;1.23;;
35010;SDS011;21205;37.378;127.098;2023-03-03T11:44:48;1.63;;;1.00;;
35010;SDS011;21205;37.378;127.098;2023-03-03T11:47:26;1.30;;;1.00;;
35010;SDS011;21205;37.378;127.098;2023-03-03T11:50:52;1.90;;;0.98;;
35010;SDS011;21205;37.378;127.098;2023-03-03T11:53:25;3.63;;;0.98;;
35010;SDS011;21205;37.378;127.098;2023-03-03T12:01:56;1.15;;;0.80;;
35010;SDS011;21205;37.378;127.098;2023-03-03T12:04:47;4.38;;;0.88;;
35010;SDS011;21205;37.378;127.098;2023-03-03T12:10:20;3.15;;;0.80;;
35010;SDS011;21205;37.378;127.098;2023-03-03T12:12:53;0.88;;;0.60;;
35010;SDS011;21205;37.378;127.098;2023-03-03T12:15:42;1.40;;;0.85;;
35010;SDS011;21205;37.378;127.098;2023-03-03T12:22:26;0.82;;;0.80;;
35010;SDS011;21205;37.378;127.098;2023-03-03T12:44:42;1.30;;;0.70;;
35010;SDS011;21205;37.378;127.098;2023-03-03T12:47:28;0.40;;;0.40;;
35010;SDS011;21205;37.378;127.098;2023-03-03T13:10:47;2.92;;;0.50;;
35010;SDS011;21205;37.378;127.098;2023-03-03T13:13:44;0.50;;;0.50;;
35010;SDS011;21205;37.378;127.098;2023-03-03T13:16:28;2.05;;;0.50;;
35010;SDS011;21205;37.378;127.098;2023-03-03T13:19:11;0.85;;;0.50;;
35010;SDS011;21205;37.378;127.098;2023-03-03T13:21:57;1.23;;;0.47;;
35010;SDS011;21205;37.378;127.098;2023-03-03T13:24:50;3.03;;;0.60;;
35010;SDS011;21205;37.378;127.098;2023-03-03T13:27:33;0.68;;;0.30;;
35010;SDS011;21205;37.378;127.098;2023-03-03T13:30:21;2.13;;;0.60;;
35010;SDS011;21205;37.378;127.098;2023-03-03T13:38:17;1.45;;;0.45;;
35010;SDS011;21205;37.378;127.098;2023-03-03T13:41:03;0.45;;;0.43;;
35010;SDS011;21205;37.378;127.098;2023-03-03T13:44:07;0.77;;;0.50;;
35010;SDS011;21205;37.378;127.098;2023-03-03T13:49:35;1.70;;;0.47;;
35010;SDS011;21205;37.378;127.098;2023-03-03T13:52:19;0.28;;;0.28;;
35010;SDS011;21205;37.378;127.098;2023-03-03T14:00:31;0.63;;;0.38;;
35010;SDS011;21205;37.378;127.098;2023-03-03T14:06:02;0.38;;;0.35;;
35010;SDS011;21205;37.378;127.098;2023-03-03T14:08:42;0.50;;;0.32;;
35010;SDS011;21205;37.378;127.098;2023-03-03T14:19:47;1.55;;;0.57;;
35010;SDS011;21205;37.378;127.098;2023-03-03T14:25:06;2.10;;;0.37;;
35010;SDS011;21205;37.378;127.098;2023-03-03T14:30:33;0.95;;;0.50;;
35010;SDS011;21205;37.378;127.098;2023-03-03T14:35:38;0.65;;;0.63;;
35010;SDS011;21205;37.378;127.098;2023-03-03T14:41:19;2.42;;;0.80;;
35010;SDS011;21205;37.378;127.098;2023-03-03T14:43:58;1.15;;;0.68;;
35010;SDS011;21205;37.378;127.098;2023-03-03T14:46:33;2.05;;;0.98;;
35010;SDS011;21205;37.378;127.098;2023-03-03T14:49:27;2.17;;;1.17;;
35010;SDS011;21205;37.378;127.098;2023-03-03T14:54:55;1.25;;;0.82;;
35010;SDS011;21205;37.378;127.098;2023-03-03T15:02:45;1.73;;;0.80;;
35010;SDS011;21205;37.378;127.098;2023-03-03T15:05:36;1.20;;;1.02;;
35010;SDS011;21205;37.378;127.098;2023-03-03T15:08:22;0.73;;;0.70;;
35010;SDS011;21205;37.378;127.098;2023-03-03T15:11:17;1.08;;;0.70;;
35010;SDS011;21205;37.378;127.098;2023-03-03T15:14:03;2.65;;;1.00;;
35010;SDS011;21205;37.378;127.098;2023-03-03T15:16:46;3.72;;;0.80;;
35010;SDS011;21205;37.378;127.098;2023-03-03T15:22:03;1.48;;;1.20;;
35010;SDS011;21205;37.378;127.098;2023-03-03T15:24:49;1.75;;;0.80;;
35010;SDS011;21205;37.378;127.098;2023-03-03T15:27:32;1.77;;;0.70;;
35010;SDS011;21205;37.378;127.098;2023-03-03T15:33:02;2.88;;;0.95;;
35010;SDS011;21205;37.378;127.098;2023-03-03T15:49:53;0.82;;;0.82;;
35010;SDS011;21205;37.378;127.098;2023-03-03T15:55:36;2.35;;;1.10;;
35010;SDS011;21205;37.378;127.098;2023-03-03T16:03:55;1.08;;;0.85;;
35010;SDS011;21205;37.378;127.098;2023-03-03T16:06:45;1.85;;;0.80;;
35010;SDS011;21205;37.378;127.098;2023-03-03T16:23:51;1.25;;;1.00;;
35010;SDS011;21205;37.378;127.098;2023-03-03T16:29:02;2.22;;;1.30;;
35010;SDS011;21205;37.378;127.098;2023-03-03T16:37:49;1.30;;;1.20;;
35010;SDS011;21205;37.378;127.098;2023-03-03T16:41:12;1.73;;;1.13;;
35010;SDS011;21205;37.378;127.098;2023-03-03T16:44:01;1.23;;;1.10;;
35010;SDS011;21205;37.378;127.098;2023-03-03T16:46:53;1.75;;;1.15;;
35010;SDS011;21205;37.378;127.098;2023-03-03T16:52:48;1.10;;;1.00;;
35010;SDS011;21205;37.378;127.098;2023-03-03T16:55:52;1.90;;;1.30;;
35010;SDS011;21205;37.378;127.098;2023-03-03T17:10:20;1.77;;;1.10;;
35010;SDS011;21205;37.378;127.098;2023-03-03T17:15:51;1.63;;;1.10;;
35010;SDS011;21205;37.378;127.098;2023-03-03T17:18:38;1.20;;;1.10;;
35010;SDS011;21205;37.378;127.098;2023-03-03T17:21:24;1.38;;;1.20;;
35010;SDS011;21205;37.378;127.098;2023-03-03T17:26:43;1.58;;;1.20;;
35010;SDS011;21205;37.378;127.098;2023-03-03T17:32:20;1.70;;;1.30;;
35010;SDS011;21205;37.378;127.098;2023-03-03T17:40:42;6.28;;;1.40;;
35010;SDS011;21205;37.378;127.098;2023-03-03T17:46:21;3.90;;;1.88;;
35010;SDS011;21205;37.378;127.098;2023-03-03T18:16:46;1.83;;;1.02;;
35010;SDS011;21205;37.378;127.098;2023-03-03T18:22:32;3.25;;;1.35;;
35010;SDS011;21205;37.378;127.098;2023-03-03T18:25:14;1.25;;;1.15;;
35010;SDS011;21205;37.378;127.098;2023-03-03T18:27:46;1.10;;;1.00;;
35010;SDS011;21205;37.378;127.098;2023-03-03T18:30:58;2.38;;;1.38;;
35010;SDS011;21205;37.378;127.098;2023-03-03T18:33:35;1.67;;;1.35;;
35010;SDS011;21205;37.378;127.098;2023-03-03T18:36:34;1.80;;;1.30;;
35010;SDS011;21205;37.378;127.098;2023-03-03T18:39:08;3.47;;;1.40;;
35010;SDS011;21205;37.378;127.098;2023-03-03T18:44:50;2.50;;;1.40;;
35010;SDS011;21205;37.378;127.098;2023-03-03T18:47:25;2.08;;;1.75;;
35010;SDS011;21205;37.378;127.098;2023-03-03T18:56:01;1.27;;;1.13;;
35010;SDS011;21205;37.378;127.098;2023-03-03T18:58:43;1.75;;;1.42;;
35010;SDS011;21205;37.378;127.098;2023-03-03T19:01:31;2.70;;;1.48;;
35010;SDS011;21205;37.378;127.098;2023-03-03T19:04:19;1.70;;;1.25;;
35010;SDS011;21205;37.378;127.098;2023-03-03T19:06:54;1.85;;;1.27;;
35010;SDS011;21205;37.378;127.098;2023-03-03T19:10:40;1.65;;;1.23;;
35010;SDS011;21205;37.378;127.098;2023-03-03T19:18:00;2.58;;;1.50;;
35010;SDS011;21205;37.378;127.098;2023-03-03T19:28:58;1.35;;;1.20;;
35010;SDS011;21205;37.378;127.098;2023-03-03T19:45:31;1.60;;;1.30;;
35010;SDS011;21205;37.378;127.098;2023-03-03T20:05:55;3.83;;;1.50;;
35010;SDS011;21205;37.378;127.098;2023-03-03T20:17:49;3.05;;;1.52;;
35010;SDS011;21205;37.378;127.098;2023-03-03T20:29:11;2.25;;;1.58;;
35010;SDS011;21205;37.378;127.098;2023-03-03T20:46:10;7.93;;;2.28;;
35010;SDS011;21205;37.378;127.098;2023-03-03T20:48:59;1.90;;;1.40;;
35010;SDS011;21205;37.378;127.098;2023-03-03T20:54:21;2.45;;;1.70;;
35010;SDS011;21205;37.378;127.098;2023-03-03T20:59:54;3.30;;;1.85;;
35010;SDS011;21205;37.378;127.098;2023-03-03T21:05:16;1.88;;;1.40;;
35010;SDS011;21205;37.378;127.098;2023-03-03T21:10:23;2.47;;;1.60;;
35010;SDS011;21205;37.378;127.098;2023-03-03T21:12:55;3.10;;;1.80;;
35010;SDS011;21205;37.378;127.098;2023-03-03T21:15:28;2.15;;;1.50;;
35010;SDS011;21205;37.378;127.098;2023-03-03T21:17:59;1.63;;;1.30;;
35010;SDS011;21205;37.378;127.098;2023-03-03T21:20:46;3.00;;;1.65;;
35010;SDS011;21205;37.378;127.098;2023-03-03T21:23:16;1.52;;;1.42;;
35010;SDS011;21205;37.378;127.098;2023-03-03T21:47:00;3.95;;;1.70;;
35010;SDS011;21205;37.378;127.098;2023-03-03T21:49:32;3.10;;;1.90;;
35010;SDS011;21205;37.378;127.098;2023-03-03T21:52:02;1.77;;;1.33;;
35010;SDS011;21205;37.378;127.098;2023-03-03T21:54:32;2.53;;;1.60;;
35010;SDS011;21205;37.378;127.098;2023-03-03T21:57:01;2.90;;;1.70;;
35010;SDS011;21205;37.378;127.098;2023-03-03T21:59:31;2.83;;;1.30;;
35010;SDS011;21205;37.378;127.098;2023-03-03T22:02:01;2.22;;;1.58;;
35010;SDS011;21205;37.378;127.098;2023-03-03T22:04:31;2.97;;;1.80;;
35010;SDS011;21205;37.378;127.098;2023-03-03T22:07:02;1.95;;;1.60;;
35010;SDS011;21205;37.378;127.098;2023-03-03T22:09:32;1.63;;;1.40;;
35010;SDS011;21205;37.378;127.098;2023-03-03T22:12:03;1.65;;;1.40;;
35010;SDS011;21205;37.378;127.098;2023-03-03T22:14:33;2.03;;;1.58;;
35010;SDS011;21205;37.378;127.098;2023-03-03T22:17:03;3.47;;;1.73;;
35010;SDS011;21205;37.378;127.098;2023-03-03T22:19:33;2.92;;;1.45;;
35010;SDS011;21205;37.378;127.098;2023-03-03T22:22:03;2.03;;;1.35;;
35010;SDS011;21205;37.378;127.098;2023-03-03T22:24:33;1.85;;;1.55;;
35010;SDS011;21205;37.378;127.098;2023-03-03T22:27:02;2.13;;;1.55;;
35010;SDS011;21205;37.378;127.098;2023-03-03T22:29:33;3.90;;;2.05;;
35010;SDS011;21205;37.378;127.098;2023-03-03T22:32:03;2.53;;;1.70;;